KCVO - Corvallis Muni A, Oregon
Updated: Thu, 30-May-2024 9:56am PDT
Clear
Clear
 Wind from NE
Wind: NE 12 mph , 19 km/h
Temperature: 57°F , 14°C
Dew Point: 43°F , 6°C
Humidity: 59%
Barometer: 30.39 inHg , 1029.1 hPa
Clouds: Clear
Visibility: 10 miles , 16 km
2024/05/30 16:56 KCVO 301656Z AUTO 04010KT 10SM CLR 14/06 A3039 RMK AO2 SLP293 T01390061